Time;durP1;ratioP1;P1;durP2;ratioP2;P2;SDS_P1;SDS_P2;PMS_P1;PMS_P2;Temp;Humidity;BMP_temperature;BMP_pressure;BME280_temperature;BME280_humidity;BME280_pressure;Samples;Min_cycle;Max_cycle;Signal;HPM_P1;HPM_P2
2021/05/13 15:22:17;;;;;;;9.25;2.80;;;16.70;72.90;;;;;;6184944;22;20026;-93
2021/05/13 15:24:46;;;;;;;7.60;2.28;;;16.70;72.80;;;;;;6231278;23;20016;-94
2021/05/13 15:30:24;;;;;;;8.10;2.00;;;16.70;72.40;;;;;;6263092;23;20027;-95
2021/05/13 15:33:21;;;;;;;;;;;;;;;;;;;;;
2021/05/13 15:35:56;;;;;;;8.65;1.90;;;16.70;72.10;;;;;;6261369;23;20016;-95
2021/05/13 15:38:27;;;;;;;7.20;1.70;;;16.70;71.90;;;;;;6219656;23;20000;-96
2021/05/13 15:40:56;;;;;;;5.07;1.52;;;16.70;72.00;;;;;;6240084;23;19996;-94
2021/05/13 15:43:23;;;;;;;7.28;1.73;;;16.70;72.00;;;;;;6240281;23;20004;-95
2021/05/13 15:46:02;;;;;;;8.15;1.73;;;16.70;71.90;;;;;;6241704;23;20004;-95
2021/05/13 15:48:28;;;;;;;7.25;3.20;;;16.60;71.80;;;;;;6239373;23;20015;-94
2021/05/13 15:51:05;;;;;;;9.95;2.95;;;16.60;72.60;;;;;;6239075;23;20012;-95
2021/05/13 15:53:36;;;;;;;10.38;3.25;;;16.40;73.70;;;;;;6269084;23;20004;-94
2021/05/13 15:56:26;;;;;;;10.10;3.77;;;16.40;74.70;;;;;;6242271;23;20031;-95
2021/05/13 15:58:55;;;;;;;10.63;3.70;;;16.30;75.90;;;;;;6250259;23;20087;-95
2021/05/13 16:01:30;;;;;;;8.32;3.50;;;16.20;77.10;;;;;;6239870;23;20000;-95
2021/05/13 16:07:21;;;;;;;11.30;3.33;;;15.90;78.80;;;;;;6203062;23;20063;-95
2021/05/13 16:10:06;;;;;;;11.48;3.83;;;15.80;79.50;;;;;;6226867;23;20008;-95
2021/05/13 16:12:45;;;;;;;9.90;3.15;;;15.70;80.10;;;;;;6242649;23;20423;-95
2021/05/13 16:15:17;;;;;;;7.30;3.25;;;15.70;80.60;;;;;;6240746;23;20011;-94
2021/05/13 16:18:00;;;;;;;9.63;3.45;;;15.60;81.20;;;;;;6217225;23;20016;-96
2021/05/13 16:20:32;;;;;;;12.15;4.93;;;15.60;82.00;;;;;;6242108;23;20000;-94
2021/05/13 16:23:08;;;;;;;10.07;3.40;;;15.60;82.80;;;;;;6239133;23;20008;-96
2021/05/13 16:25:45;;;;;;;8.27;3.10;;;15.60;83.40;;;;;;6237664;23;20004;-95
2021/05/13 16:28:14;;;;;;;7.82;3.10;;;15.60;83.60;;;;;;6235606;23;20030;-94
2021/05/13 16:30:46;;;;;;;11.55;3.22;;;15.60;83.80;;;;;;6213507;23;20068;-96
2021/05/13 16:33:17;;;;;;;8.80;3.08;;;15.60;84.00;;;;;;6236727;23;20032;-96
2021/05/13 16:35:47;;;;;;;12.27;2.97;;;15.60;84.30;;;;;;6237989;23;20008;-96
2021/05/13 16:38:13;;;;;;;8.90;3.10;;;15.60;84.40;;;;;;6236552;23;20067;-94
2021/05/13 16:41:06;;;;;;;10.13;3.45;;;15.60;84.50;;;;;;6235567;23;20015;-95
2021/05/13 16:43:33;;;;;;;8.45;2.92;;;15.60;84.60;;;;;;6235340;23;20114;-95
2021/05/13 16:46:17;;;;;;;10.15;3.20;;;15.50;84.60;;;;;;6233864;23;19996;-95
2021/05/13 16:48:46;;;;;;;9.40;3.15;;;15.50;85.00;;;;;;6234686;23;20083;-95
2021/05/13 16:51:12;;;;;;;13.32;3.80;;;15.40;85.40;;;;;;6233003;23;20015;-95
2021/05/13 16:53:49;;;;;;;7.60;2.97;;;15.30;85.90;;;;;;6233766;23;20012;-95
2021/05/13 16:56:24;;;;;;;8.15;3.00;;;15.30;86.40;;;;;;6232992;23;20012;-96
2021/05/13 16:59:45;;;;;;;7.63;2.25;;;15.30;86.70;;;;;;6254488;23;20034;-93
2021/05/13 17:02:18;;;;;;;10.93;2.83;;;15.30;87.10;;;;;;6228772;23;20000;-92
2021/05/13 17:04:51;;;;;;;13.43;3.70;;;15.30;87.20;;;;;;6228390;23;20004;-91
2021/05/13 17:07:17;;;;;;;7.90;3.08;;;15.40;87.30;;;;;;6228835;23;20012;-91
2021/05/13 17:09:58;;;;;;;10.45;2.28;;;15.40;87.10;;;;;;6226751;23;20006;-92
2021/05/13 17:12:24;;;;;;;10.88;3.28;;;15.40;87.30;;;;;;6228642;23;20012;-92
2021/05/13 17:14:54;;;;;;;6.85;2.90;;;15.50;87.20;;;;;;6227250;23;20423;-91
2021/05/13 17:17:39;;;;;;;10.85;2.80;;;15.50;87.40;;;;;;6255621;23;20016;-93
2021/05/13 17:20:30;;;;;;;10.00;3.22;;;15.60;87.40;;;;;;6257627;23;20008;-93
2021/05/13 17:23:24;;;;;;;15.60;3.10;;;15.70;87.20;;;;;;6207149;23;20020;-91
2021/05/13 17:25:55;;;;;;;15.45;3.70;;;15.80;87.20;;;;;;6229824;23;20016;-92
2021/05/13 17:29:11;;;;;;;8.50;2.92;;;15.90;86.90;;;;;;6205698;23;20012;-93
2021/05/13 17:31:46;;;;;;;8.68;2.90;;;15.90;87.10;;;;;;6110539;23;20002;-93
2021/05/13 17:34:30;;;;;;;7.95;3.13;;;15.80;87.00;;;;;;6105325;23;20002;-93
2021/05/13 17:37:00;;;;;;;8.65;3.50;;;15.70;87.00;;;;;;6109522;23;20409;-91
2021/05/13 17:39:35;;;;;;;9.05;3.33;;;15.70;87.40;;;;;;6133274;23;20057;-92
2021/05/13 17:42:04;;;;;;;10.52;3.28;;;15.60;87.80;;;;;;6107115;23;20006;-91
2021/05/13 17:44:56;;;;;;;9.68;2.80;;;15.50;87.90;;;;;;6108482;23;20010;-92
2021/05/13 17:47:28;;;;;;;11.25;2.90;;;15.50;88.10;;;;;;6131029;23;20009;-92
2021/05/13 17:49:55;;;;;;;13.35;2.67;;;15.40;88.30;;;;;;6084597;23;20010;-90
2021/05/13 17:52:24;;;;;;;8.23;2.28;;;15.40;87.30;;;;;;6105339;23;20008;-91
2021/05/13 17:54:52;;;;;;;10.82;2.42;;;15.30;85.50;;;;;;6132911;23;20032;-92
2021/05/13 17:57:19;;;;;;;12.00;2.10;;;15.20;85.00;;;;;;6120978;23;20034;-90
2021/05/13 17:59:47;;;;;;;9.65;2.25;;;15.20;84.80;;;;;;6131933;23;20010;-90
2021/05/13 18:02:18;;;;;;;9.23;2.25;;;15.20;84.60;;;;;;6132123;23;20029;-92
2021/05/13 18:04:49;;;;;;;6.55;2.65;;;15.20;84.20;;;;;;6108400;23;20006;-92
2021/05/13 18:07:18;;;;;;;7.40;2.05;;;15.30;83.60;;;;;;6149027;23;20031;-92
2021/05/13 18:09:53;;;;;;;13.70;2.50;;;15.30;83.30;;;;;;6253263;23;20043;-91
2021/05/13 18:12:28;;;;;;;9.68;2.17;;;15.30;82.70;;;;;;6227531;23;20000;-93
2021/05/13 18:14:54;;;;;;;11.20;2.35;;;15.20;82.30;;;;;;6227222;23;20031;-90
2021/05/13 18:17:26;;;;;;;11.60;1.90;;;15.10;82.30;;;;;;6227918;23;20012;-91
2021/05/13 18:19:57;;;;;;;9.35;2.50;;;15.10;82.40;;;;;;6230134;23;20510;-91
2021/05/13 18:25:58;;;;;;;9.05;2.50;;;15.00;82.70;;;;;;6226895;23;20055;-91
2021/05/13 18:28:25;;;;;;;;;;;14.90;83.00;;;;;;6227807;23;20087;-93
2021/05/13 18:30:57;;;;;;;7.03;2.22;;;14.90;82.70;;;;;;6204230;23;19935;-92
2021/05/13 18:33:25;;;;;;;12.98;3.03;;;14.80;82.80;;;;;;6205864;23;20040;-91
2021/05/13 18:36:01;;;;;;;6.65;2.00;;;14.70;82.90;;;;;;6207429;23;20416;-92
2021/05/13 18:38:33;;;;;;;8.95;1.95;;;14.60;83.30;;;;;;6203981;23;20018;-92
2021/05/13 18:40:59;;;;;;;11.02;2.75;;;14.60;83.40;;;;;;6209174;23;20031;-93
2021/05/13 18:43:35;;;;;;;8.85;2.35;;;14.60;83.60;;;;;;6236269;23;20004;-94
2021/05/13 18:46:07;;;;;;;10.77;2.50;;;14.60;84.10;;;;;;6206449;23;20065;-92
2021/05/13 18:48:34;;;;;;;12.13;2.55;;;14.50;84.10;;;;;;6204592;23;20001;-93
2021/05/13 18:51:02;;;;;;;11.40;3.15;;;14.50;83.80;;;;;;6204954;23;20001;-92
2021/05/13 18:53:44;;;;;;;14.10;2.28;;;14.40;83.70;;;;;;6180098;23;20013;-93
2021/05/13 18:56:32;;;;;;;12.02;2.67;;;14.30;83.80;;;;;;6210975;23;20005;-93
2021/05/13 18:59:00;;;;;;;10.95;2.67;;;14.30;83.60;;;;;;6224094;23;20136;-91
2021/05/13 19:01:30;;;;;;;7.93;2.28;;;14.20;83.40;;;;;;6200775;23;20005;-90
2021/05/13 19:03:57;;;;;;;11.03;2.23;;;14.20;83.60;;;;;;6200691;23;20012;-91
2021/05/13 19:06:46;;;;;;;8.93;2.40;;;14.20;83.80;;;;;;6226723;23;20267;-90
2021/05/13 19:09:13;;;;;;;8.68;2.20;;;14.10;83.60;;;;;;6199928;23;20000;-90
2021/05/13 19:11:49;;;;;;;17.05;2.83;;;14.10;84.00;;;;;;6226200;23;20012;-91
2021/05/13 19:14:19;;;;;;;10.63;2.47;;;14.00;84.10;;;;;;6174078;23;20009;-90
2021/05/13 19:16:48;;;;;;;10.20;2.20;;;14.00;84.30;;;;;;6199046;23;20471;-91
2021/05/13 19:19:19;;;;;;;11.13;3.25;;;13.90;84.10;;;;;;6225662;23;20001;-91
2021/05/13 19:21:46;;;;;;;13.50;2.45;;;13.90;84.40;;;;;;6197958;23;20039;-90
2021/05/13 19:24:12;;;;;;;17.25;4.13;;;13.80;84.60;;;;;;6205088;23;20008;-90
2021/05/13 19:26:42;;;;;;;12.52;2.33;;;13.70;84.60;;;;;;6223028;23;20000;-90
2021/05/13 19:37:42;;;;;;;9.10;2.22;;;13.60;85.70;;;;;;6225126;23;20134;-89
2021/05/13 19:40:23;;;;;;;11.20;2.30;;;13.50;86.10;;;;;;6225553;23;20020;-93
2021/05/13 19:43:16;;;;;;;14.52;2.70;;;13.50;86.30;;;;;;6224704;23;20009;-89
2021/05/13 19:46:06;;;;;;;10.32;2.20;;;13.40;86.10;;;;;;6225206;23;20040;-90
2021/05/13 19:48:42;;;;;;;10.43;3.08;;;13.40;86.60;;;;;;6225464;23;20038;-90
2021/05/13 19:51:13;;;;;;;7.93;1.92;;;13.30;86.70;;;;;;6226925;23;20012;-90
2021/05/13 19:53:43;;;;;;;13.85;2.55;;;13.20;86.50;;;;;;6224324;23;20080;-90
2021/05/13 19:59:45;;;;;;;11.13;3.28;;;13.10;87.50;;;;;;6231907;22;20035;-88
2021/05/13 20:08:53;;;;;;;;;;;12.80;87.90;;;;;;6195873;23;19975;-89
2021/05/13 20:11:28;;;;;;;11.65;2.78;;;12.70;88.00;;;;;;6146887;23;19926;-91
2021/05/13 20:14:00;;;;;;;8.88;2.72;;;12.60;88.40;;;;;;6169778;23;20001;-91
2021/05/13 20:16:32;;;;;;;16.17;3.28;;;12.50;89.00;;;;;;6193722;23;20009;-90
2021/05/13 20:19:03;;;;;;;7.47;2.00;;;12.40;89.30;;;;;;6142596;23;20041;-90
2021/05/13 20:21:34;;;;;;;9.80;2.63;;;12.40;89.70;;;;;;6192880;23;20021;-89
2021/05/13 20:24:10;;;;;;;12.10;3.60;;;12.40;90.10;;;;;;6166401;23;20404;-89
2021/05/13 20:27:14;;;;;;;14.10;3.17;;;12.30;90.30;;;;;;6167673;23;20005;-89
2021/05/13 20:32:29;;;;;;;14.63;2.92;;;12.10;90.40;;;;;;6191435;23;20059;-91
2021/05/13 20:34:55;;;;;;;8.93;2.47;;;12.10;90.50;;;;;;6168694;23;20013;-92
2021/05/13 20:37:22;;;;;;;12.50;3.25;;;12.10;90.60;;;;;;6168903;23;20013;-91
2021/05/13 20:39:53;;;;;;;10.90;3.03;;;12.00;90.80;;;;;;6168067;23;20029;-89
2021/05/13 20:42:22;;;;;;;11.05;2.50;;;12.00;91.00;;;;;;6194621;23;20011;-90
2021/05/13 20:45:01;;;;;;;14.88;3.17;;;12.00;91.20;;;;;;6248516;23;20000;-92
2021/05/13 20:48:18;;;;;;;12.80;2.63;;;12.00;91.30;;;;;;6250512;23;20087;-90
2021/05/13 20:50:47;;;;;;;8.63;2.35;;;11.90;91.20;;;;;;6254264;23;20005;-90
2021/05/13 21:01:39;;;;;;;11.10;2.75;;;11.80;91.70;;;;;;6258690;23;20020;-90
2021/05/13 21:04:16;;;;;;;21.80;4.63;;;11.70;91.80;;;;;;6231148;23;20008;-90
2021/05/13 21:09:50;;;;;;;6.80;2.20;;;11.60;91.90;;;;;;6258473;23;20011;-90
2021/05/13 21:12:38;;;;;;;9.38;2.63;;;11.50;92.00;;;;;;6231360;23;20000;-88
2021/05/13 21:29:21;;;;;;;12.85;3.30;;;11.20;93.20;;;;;;6196036;23;20019;-91
2021/05/13 21:31:52;;;;;;;9.55;2.60;;;11.20;93.20;;;;;;6171064;23;20012;-90
2021/05/13 21:34:34;;;;;;;15.70;3.13;;;11.10;93.30;;;;;;6196717;23;20024;-89
2021/05/13 21:37:26;;;;;;;8.27;2.63;;;11.00;93.60;;;;;;6194077;23;20009;-90
2021/05/13 21:39:54;;;;;;;10.98;2.58;;;11.00;93.80;;;;;;6194829;23;20036;-90
2021/05/13 21:42:22;;;;;;;15.40;2.92;;;10.90;94.00;;;;;;6169643;23;20108;-91
2021/05/13 21:44:53;;;;;;;17.17;3.75;;;10.90;94.20;;;;;;6194638;23;20009;-91
2021/05/13 21:47:23;;;;;;;20.55;3.72;;;10.80;94.40;;;;;;6191624;23;20009;-89
2021/05/13 21:49:53;;;;;;;16.73;3.33;;;10.70;94.70;;;;;;6167888;23;19998;-90
2021/05/13 21:52:53;;;;;;;16.50;3.55;;;10.70;95.00;;;;;;6166540;23;20013;-89
2021/05/13 21:55:25;;;;;;;17.10;3.72;;;10.60;95.40;;;;;;6192633;23;20008;-90
2021/05/13 21:57:57;;;;;;;13.25;3.42;;;10.50;95.80;;;;;;6194435;23;20318;-88
2021/05/13 22:00:26;;;;;;;14.85;4.63;;;10.50;96.10;;;;;;6191641;23;20037;-89
2021/05/13 22:02:51;;;;;;;12.00;3.13;;;10.40;96.50;;;;;;6202130;23;20008;-90
2021/05/13 22:05:23;;;;;;;16.08;3.88;;;10.40;96.80;;;;;;6253544;23;20055;-90
2021/05/13 22:07:50;;;;;;;20.98;4.57;;;10.30;97.20;;;;;;6229885;23;20399;-91
2021/05/13 22:10:20;;;;;;;18.80;5.78;;;10.30;97.50;;;;;;6202916;23;20038;-91
2021/05/13 22:12:50;;;;;;;15.32;4.40;;;10.30;97.80;;;;;;6253555;23;20060;-90
2021/05/13 22:15:20;;;;;;;18.67;6.10;;;10.20;98.20;;;;;;6252577;23;20007;-90
2021/05/13 22:17:49;;;;;;;17.50;7.75;;;10.10;98.70;;;;;;6225833;23;20023;-89
2021/05/13 22:20:19;;;;;;;30.30;6.85;;;10.10;99.10;;;;;;6200706;23;20004;-90
2021/05/13 22:23:04;;;;;;;14.57;7.15;;;10.00;99.50;;;;;;6249172;23;20015;-89
2021/05/13 22:25:44;;;;;;;16.05;6.55;;;10.00;99.90;;;;;;6217716;23;20005;-90
2021/05/13 22:28:33;;;;;;;21.33;6.40;;;9.90;99.90;;;;;;6248265;23;20000;-91
2021/05/13 22:31:07;;;;;;;21.67;6.80;;;9.90;99.90;;;;;;6224404;23;20004;-88
2021/05/13 22:33:39;;;;;;;16.70;7.35;;;9.80;99.90;;;;;;6202133;23;20008;-89
2021/05/13 22:36:08;;;;;;;23.83;6.80;;;9.80;99.90;;;;;;6224462;23;20427;-90
2021/05/13 22:38:38;;;;;;;15.23;7.13;;;9.70;99.90;;;;;;6226342;23;20008;-90
2021/05/13 22:41:15;;;;;;;19.90;7.60;;;9.70;99.90;;;;;;6225377;23;20019;-90
2021/05/13 22:43:45;;;;;;;17.55;7.40;;;9.60;99.90;;;;;;6203608;23;20004;-90
2021/05/13 22:46:12;;;;;;;15.57;7.00;;;9.70;99.90;;;;;;6254609;23;20003;-91
2021/05/13 22:49:16;;;;;;;20.83;7.03;;;9.60;99.90;;;;;;6252834;23;20000;-92
2021/05/13 22:51:35;;;;;;;15.85;7.55;;;9.60;99.90;;;;;;6247222;23;20011;-90
2021/05/13 22:54:03;;;;;;;21.25;9.70;;;9.60;99.90;;;;;;6228650;23;20059;-90
2021/05/13 22:56:32;;;;;;;22.42;9.77;;;9.50;99.90;;;;;;6203356;23;20359;-90
2021/05/13 22:58:58;;;;;;;23.65;10.18;;;9.40;99.90;;;;;;6254141;23;20008;-91
2021/05/13 23:01:24;;;;;;;23.55;8.80;;;9.20;99.90;;;;;;6231015;23;20026;-90
2021/05/13 23:03:50;;;;;;;21.05;8.70;;;9.20;99.90;;;;;;6231555;23;20435;-88
2021/05/13 23:06:16;;;;;;;20.63;9.48;;;9.10;99.90;;;;;;6258569;23;20011;-90
2021/05/13 23:08:47;;;;;;;23.48;9.65;;;9.00;99.90;;;;;;6259014;23;20031;-91
2021/05/13 23:11:13;;;;;;;21.80;12.07;;;8.90;99.90;;;;;;6233375;23;20055;-90
2021/05/13 23:13:58;;;;;;;23.95;11.02;;;8.90;99.90;;;;;;6230335;23;20019;-90
2021/05/13 23:16:24;;;;;;;23.55;11.25;;;8.80;99.90;;;;;;6189922;23;20012;-91
2021/05/13 23:18:50;;;;;;;20.02;10.80;;;8.80;99.90;;;;;;6227770;23;20028;-89
2021/05/13 23:21:16;;;;;;;27.98;12.45;;;8.80;99.90;;;;;;6227555;23;20008;-91
2021/05/13 23:23:44;;;;;;;25.17;13.07;;;8.70;99.90;;;;;;6226983;23;20004;-89
2021/05/13 23:26:12;;;;;;;29.83;12.02;;;8.70;99.90;;;;;;6224984;23;20001;-89
2021/05/13 23:28:38;;;;;;;30.92;12.88;;;8.70;99.90;;;;;;6225516;23;20008;-90
2021/05/13 23:31:04;;;;;;;30.13;12.60;;;8.60;99.90;;;;;;6224493;23;20008;-90
2021/05/13 23:33:31;;;;;;;27.73;12.68;;;8.60;99.90;;;;;;6224163;23;20012;-90
2021/05/13 23:35:56;;;;;;;33.30;14.25;;;8.60;99.90;;;;;;6223564;23;20024;-90
2021/05/13 23:38:22;;;;;;;34.45;13.43;;;8.60;99.90;;;;;;6225514;23;20004;-90
2021/05/13 23:40:48;;;;;;;32.53;14.73;;;8.60;99.90;;;;;;6199160;23;20321;-90
2021/05/13 23:43:14;;;;;;;40.90;17.60;;;8.60;99.90;;;;;;6226052;23;20011;-90
2021/05/13 23:45:40;;;;;;;35.95;19.00;;;8.60;99.90;;;;;;6226532;23;20024;-90
2021/05/13 23:48:09;;;;;;;33.08;18.48;;;8.50;99.90;;;;;;6226618;23;20001;-91
2021/05/13 23:50:35;;;;;;;35.50;18.40;;;8.40;99.90;;;;;;6228673;23;20034;-90
2021/05/13 23:53:03;;;;;;;34.20;15.40;;;8.40;99.90;;;;;;6227727;23;20078;-89
2021/05/13 23:55:29;;;;;;;33.47;16.38;;;8.40;99.90;;;;;;6200944;23;20012;-89
2021/05/13 23:58:01;;;;;;;40.65;20.60;;;8.40;99.90;;;;;;6224783;23;20077;-89
